createdAt,value
2023-05-24T00:01:56.589Z,-23571.09
2023-05-24T00:04:00.913Z,-23565.09
2023-05-24T00:06:03.847Z,-23565.41
2023-05-24T00:08:06.534Z,-23566.34
2023-05-24T00:10:10.881Z,-23566.66
2023-05-24T00:12:13.528Z,-23570.47
2023-05-24T00:14:17.602Z,-23572.84
2023-05-24T00:16:20.792Z,-23566.66
2023-05-24T00:18:23.628Z,-23563.19
2023-05-24T00:20:26.762Z,-23563.34
2023-05-24T00:22:29.537Z,-23566.66
2023-05-24T00:24:32.480Z,-23561.94
2023-05-24T00:26:35.128Z,-23557.66
2023-05-24T00:28:37.855Z,-23559.72
2023-05-24T00:30:42.211Z,-23555.28
2023-05-24T00:32:45.253Z,-23557.03
2023-05-24T00:34:47.961Z,-23559.41
2023-05-24T00:36:50.645Z,-23557.19
2023-05-24T00:38:53.743Z,-23564.13
2023-05-24T00:40:57.357Z,-23556.06
2023-05-24T00:43:00.064Z,-23556.88
2023-05-24T00:45:02.934Z,-23557.81
2023-05-24T00:47:07.380Z,-23552.59
2023-05-24T00:49:10.762Z,-23557.19
2023-05-24T00:51:14.294Z,-23559.41
2023-05-24T00:53:17.051Z,-23552.91
2023-05-24T00:55:19.812Z,-23560.97
2023-05-24T00:57:23.954Z,-23549.28
2023-05-24T00:59:27.845Z,-23551.81
2023-05-24T01:01:31.082Z,-23552.75
2023-05-24T01:03:36.206Z,-23554.03
2023-05-24T01:05:39.104Z,-23552.44
2023-05-24T01:07:53.459Z,-23554.97
2023-05-24T01:10:08.042Z,-23554.66
2023-05-24T01:12:21.613Z,-23551.97
2023-05-24T01:14:30.278Z,-23561.28
2023-05-24T01:16:42.025Z,-23557.81
2023-05-24T01:18:53.632Z,-23561.13
2023-05-24T01:21:04.667Z,-23558.75
2023-05-24T01:23:27.920Z,-23557.81
2023-05-24T01:25:45.220Z,-23557.97
2023-05-24T01:27:50.513Z,-23557.19
2023-05-24T01:29:54.213Z,-23550.53
2023-05-24T01:31:57.762Z,-23554.03
2023-05-24T01:34:00.406Z,-23551.66
2023-05-24T01:36:03.093Z,-23554.50
2023-05-24T01:38:05.969Z,-23551.47
2023-05-24T01:40:10.170Z,-23549.91
2023-05-24T01:42:22.516Z,-23546.09
2023-05-24T01:44:32.730Z,-23550.53
2023-05-24T01:46:38.252Z,-23554.50
2023-05-24T01:48:53.494Z,-23544.06
2023-05-24T01:50:59.585Z,-23543.75
2023-05-24T01:53:05.957Z,-23540.25
2023-05-24T01:55:10.711Z,-23534.88
2023-05-24T01:57:14.115Z,-23535.66
2023-05-24T01:59:17.365Z,-23537.56
2023-05-24T02:01:21.901Z,-23540.72
2023-05-24T02:03:24.829Z,-23535.34
2023-05-24T02:05:27.717Z,-23533.44
2023-05-24T02:07:30.397Z,-23539.31
2023-05-24T02:09:33.136Z,-23546.44
2023-05-24T02:11:35.959Z,-23535.34
2023-05-24T02:13:38.659Z,-23537.25
2023-05-24T02:15:42.015Z,-23540.09
2023-05-24T02:17:46.144Z,-23536.94
2023-05-24T02:19:48.911Z,-23529.66
2023-05-24T02:21:53.100Z,-23529.97
2023-05-24T02:23:55.902Z,-23532.50
2023-05-24T02:25:58.628Z,-23528.06
2023-05-24T02:28:01.381Z,-23535.97
2023-05-24T02:30:04.390Z,-23528.06
2023-05-24T02:32:07.652Z,-23528.69
2023-05-24T02:34:11.801Z,-23529.47
2023-05-24T02:36:14.623Z,-23532.81
2023-05-24T02:38:17.378Z,-23527.59
2023-05-24T02:40:20.189Z,-23528.38
2023-05-24T02:42:23.005Z,-23523.47
2023-05-24T02:44:25.853Z,-23523.94
2023-05-24T02:46:28.624Z,-23529.00
2023-05-24T02:48:31.326Z,-23523.94
2023-05-24T02:50:36.669Z,-23523.31
2023-05-24T02:52:39.427Z,-23521.41
2023-05-24T02:54:42.174Z,-23523.94
2023-05-24T02:56:44.813Z,-23518.25
2023-05-24T02:58:47.496Z,-23520.31
2023-05-24T03:00:50.356Z,-23516.03
2023-05-24T03:02:53.202Z,-23519.34
2023-05-24T03:04:56.112Z,-23521.09
2023-05-24T03:07:00.270Z,-23515.56
2023-05-24T03:09:02.891Z,-23517.63
2023-05-24T03:11:05.911Z,-23514.59
2023-05-24T03:13:08.817Z,-23512.84
2023-05-24T03:15:12.096Z,-23513.03
2023-05-24T03:17:14.859Z,-23518.25
2023-05-24T03:19:18.474Z,-23511.59
2023-05-24T03:21:21.372Z,-23514.44
2023-05-24T03:23:25.450Z,-23514.28
2023-05-24T03:25:28.387Z,-23509.22
2023-05-24T03:27:31.128Z,-23516.66
2023-05-24T03:29:33.912Z,-23510.97
2023-05-24T03:31:36.704Z,-23514.75
2023-05-24T03:33:39.487Z,-23513.03
2023-05-24T03:35:42.125Z,-23512.06
2023-05-24T03:37:44.740Z,-23515.06
2023-05-24T03:39:48.711Z,-23512.84
2023-05-24T03:41:51.423Z,-23508.44
2023-05-24T03:43:54.144Z,-23510.31
2023-05-24T03:45:56.946Z,-23515.41
2023-05-24T03:47:59.731Z,-23509.53
2023-05-24T03:50:02.592Z,-23510.97
2023-05-24T03:52:05.790Z,-23509.38
2023-05-24T03:54:08.410Z,-23511.28
2023-05-24T03:56:12.489Z,-23511.28
2023-05-24T03:58:15.182Z,-23508.75
2023-05-24T04:00:18.364Z,-23504.47
2023-05-24T04:02:21.239Z,-23514.75
2023-05-24T04:04:23.999Z,-23506.22
2023-05-24T04:06:29.136Z,-23506.38
2023-05-24T04:08:31.909Z,-23507.78
2023-05-24T04:10:34.633Z,-23510.66
2023-05-24T04:12:39.692Z,-23503.69
2023-05-24T04:14:42.369Z,-23503.84
2023-05-24T04:16:45.199Z,-23503.19
2023-05-24T04:18:48.125Z,-23506.22
2023-05-24T04:20:51.016Z,-23507.63
2023-05-24T04:22:53.758Z,-23506.84
2023-05-24T04:24:56.461Z,-23504.16
2023-05-24T04:26:59.335Z,-23502.56
2023-05-24T04:29:03.731Z,-23502.09
2023-05-24T04:31:07.161Z,-23504.31
2023-05-24T04:33:09.879Z,-23503.69
2023-05-24T04:35:13.273Z,-23505.25
2023-05-24T04:37:17.129Z,-23502.25
2023-05-24T04:39:19.953Z,-23503.69
2023-05-24T04:41:24.416Z,-23502.09
2023-05-24T04:43:27.601Z,-23504.63
2023-05-24T04:45:33.039Z,-23502.41
2023-05-24T04:47:36.882Z,-23509.69
2023-05-24T04:49:42.967Z,-23506.38
2023-05-24T04:51:46.077Z,-23502.56
2023-05-24T04:53:48.782Z,-23507.78
2023-05-24T04:55:52.540Z,-23493.69
2023-05-24T04:57:55.274Z,-23502.25
2023-05-24T04:59:57.963Z,-23507.78
2023-05-24T05:02:02.059Z,-23507.63
2023-05-24T05:04:05.505Z,-23502.09
2023-05-24T05:06:08.413Z,-23500.03
2023-05-24T05:08:11.128Z,-23502.88
2023-05-24T05:10:13.766Z,-23505.56
2023-05-24T05:12:17.046Z,-23510.97
2023-05-24T05:14:19.741Z,-23510.97
2023-05-24T05:16:22.496Z,-23508.44
2023-05-24T05:18:26.570Z,-23508.59
2023-05-24T05:20:29.299Z,-23503.19
2023-05-24T05:22:31.992Z,-23509.06
2023-05-24T05:24:34.706Z,-23497.19
2023-05-24T05:26:37.535Z,-23501.13
2023-05-24T05:28:40.171Z,-23508.09
2023-05-24T05:30:43.044Z,-23501.28
2023-05-24T05:32:46.037Z,-23506.84
2023-05-24T05:34:50.101Z,-23509.84
2023-05-24T05:36:52.736Z,-23504.31
2023-05-24T05:38:55.636Z,-23501.63
2023-05-24T05:40:58.272Z,-23509.06
2023-05-24T05:43:00.968Z,-23512.84
2023-05-24T05:45:04.165Z,-23502.72
2023-05-24T05:47:08.743Z,-23497.50
2023-05-24T05:49:11.435Z,-23509.22
2023-05-24T05:51:15.480Z,-23501.47
2023-05-24T05:53:18.129Z,-23508.59
2023-05-24T05:55:21.047Z,-23510.97
2023-05-24T05:57:24.464Z,-23503.50
2023-05-24T05:59:27.308Z,-23509.38
2023-05-24T06:01:29.960Z,-23513.66
2023-05-24T06:03:32.743Z,-23516.66
2023-05-24T06:05:35.644Z,-23511.91
2023-05-24T06:07:39.718Z,-23507.00
2023-05-24T06:09:42.388Z,-23501.47
2023-05-24T06:11:45.129Z,-23509.69
2023-05-24T06:13:47.882Z,-23518.09
2023-05-24T06:15:52.757Z,-23516.50
2023-05-24T06:17:55.494Z,-23513.97
2023-05-24T06:19:58.265Z,-23516.97
2023-05-24T06:22:01.348Z,-23510.66
2023-05-24T06:24:05.768Z,-23514.91
2023-05-24T06:26:09.572Z,-23525.38
2023-05-24T06:28:12.263Z,-23523.00
2023-05-24T06:30:15.425Z,-23525.84
2023-05-24T06:32:18.137Z,-23524.56
2023-05-24T06:34:21.969Z,-23530.28
2023-05-24T06:36:24.696Z,-23514.28
2023-05-24T06:38:27.928Z,-23517.63
2023-05-24T06:40:31.970Z,-23532.81
2023-05-24T06:42:34.672Z,-23532.81
2023-05-24T06:44:37.309Z,-23528.22
2023-05-24T06:46:40.324Z,-23523.16
2023-05-24T06:48:43.191Z,-23532.66
2023-05-24T06:50:46.262Z,-23527.13
2023-05-24T06:52:49.354Z,-23527.44
2023-05-24T06:54:52.154Z,-23529.81
2023-05-24T06:56:56.207Z,-23536.94
2023-05-24T06:58:59.691Z,-23528.84
2023-05-24T07:01:02.574Z,-23525.06
2023-05-24T07:03:05.462Z,-23529.34
2023-05-24T07:05:12.039Z,-23525.84
2023-05-24T07:07:15.123Z,-23528.38
2023-05-24T07:09:17.818Z,-23529.00
2023-05-24T07:11:20.674Z,-23522.84
2023-05-24T07:13:24.689Z,-23524.91
2023-05-24T07:15:27.349Z,-23524.09
2023-05-24T07:17:30.122Z,-23527.44
2023-05-24T07:19:35.810Z,-23524.41
2023-05-24T07:21:38.603Z,-23520.16
2023-05-24T07:23:41.284Z,-23519.81
2023-05-24T07:25:44.009Z,-23525.53
2023-05-24T07:27:46.767Z,-23523.94
2023-05-24T07:29:51.061Z,-23525.06
2023-05-24T07:31:56.671Z,-23512.84
2023-05-24T07:33:59.454Z,-23516.66
2023-05-24T07:36:02.614Z,-23523.63
2023-05-24T07:38:05.734Z,-23524.09
2023-05-24T07:40:11.819Z,-23528.06
2023-05-24T07:42:14.586Z,-23529.66
2023-05-24T07:44:17.329Z,-23527.75
2023-05-24T07:46:21.593Z,-23511.75
2023-05-24T07:48:24.429Z,-23525.84
2023-05-24T07:50:28.071Z,-23530.13
2023-05-24T07:52:31.304Z,-23529.97
2023-05-24T07:54:34.029Z,-23546.91
2023-05-24T07:56:37.750Z,-23539.78
2023-05-24T07:58:41.873Z,-23531.69
2023-05-24T08:00:44.593Z,-23528.69
2023-05-24T08:02:48.728Z,-23525.22
2023-05-24T08:04:51.753Z,-23527.75
2023-05-24T08:06:54.479Z,-23519.50
2023-05-24T08:08:57.473Z,-23529.47
2023-05-24T08:11:00.277Z,-23538.84
2023-05-24T08:13:03.509Z,-23536.94
2023-05-24T08:15:07.560Z,-23528.38
2023-05-24T08:17:10.271Z,-23533.28
2023-05-24T08:19:14.612Z,-23533.28
2023-05-24T08:21:17.660Z,-23524.56
2023-05-24T08:23:20.318Z,-23529.34
2023-05-24T08:25:23.097Z,-23525.53
2023-05-24T08:27:28.656Z,-23533.44
2023-05-24T08:29:31.441Z,-23529.00
2023-05-24T08:31:34.534Z,-23542.00
2023-05-24T08:33:37.402Z,-23536.28
2023-05-24T08:35:41.801Z,-23522.69
2023-05-24T08:37:44.684Z,-23530.91
2023-05-24T08:39:47.646Z,-23525.22
2023-05-24T08:42:07.246Z,-23533.13
2023-05-24T08:44:11.996Z,-23535.19
2023-05-24T08:46:16.480Z,-23543.09
2023-05-24T08:48:20.257Z,-23531.53
2023-05-24T08:50:23.713Z,-23538.66
2023-05-24T08:52:30.348Z,-23539.00
2023-05-24T08:54:33.100Z,-23553.22
2023-05-24T08:56:35.925Z,-23552.13
2023-05-24T08:58:39.640Z,-23568.88
2023-05-24T09:00:42.331Z,-23564.13
2023-05-24T09:02:47.066Z,-23569.19
2023-05-24T09:04:51.357Z,-23565.41
2023-05-24T09:06:55.639Z,-23570.78
2023-05-24T09:09:00.738Z,-23571.09
2023-05-24T09:11:04.851Z,-23563.50
2023-05-24T09:13:08.691Z,-23550.84
2023-05-24T09:15:11.509Z,-23558.13
2023-05-24T09:17:15.762Z,-23552.75
2023-05-24T09:19:20.321Z,-23547.38
2023-05-24T09:21:23.271Z,-23557.66
2023-05-24T09:23:28.025Z,-23555.91
2023-05-24T09:25:32.291Z,-23563.34
2023-05-24T09:27:36.116Z,-23557.50
2023-05-24T09:29:38.858Z,-23548.00
2023-05-24T09:31:41.740Z,-23540.09
2023-05-24T09:33:44.410Z,-23539.78
2023-05-24T09:35:49.402Z,-23542.00
2023-05-24T09:37:55.168Z,-23549.59
2023-05-24T09:39:58.163Z,-23551.81
2023-05-24T09:42:04.311Z,-23553.22
2023-05-24T09:44:07.554Z,-23561.59
2023-05-24T09:46:10.698Z,-23539.16
2023-05-24T09:48:14.018Z,-23537.41
2023-05-24T09:50:17.845Z,-23545.78
2023-05-24T09:52:20.904Z,-23552.75
2023-05-24T09:54:25.774Z,-23569.50
2023-05-24T09:56:28.585Z,-23556.06
2023-05-24T09:58:33.951Z,-23567.94
2023-05-24T10:00:39.643Z,-23571.72
2023-05-24T10:02:52.215Z,-23575.84
2023-05-24T10:05:01.067Z,-23560.81
2023-05-24T10:07:04.830Z,-23565.41
2023-05-24T10:09:07.987Z,-23554.03
2023-05-24T10:11:10.719Z,-23567.16
2023-05-24T10:13:15.802Z,-23560.66
2023-05-24T10:15:20.041Z,-23557.50
2023-05-24T10:17:22.839Z,-23559.06
2023-05-24T10:19:25.724Z,-23563.03
2023-05-24T10:21:32.767Z,-23556.72
2023-05-24T10:23:37.643Z,-23570.63
2023-05-24T10:25:44.996Z,-23575.69
2023-05-24T10:27:50.741Z,-23582.78
2023-05-24T10:30:00.457Z,-23561.59
2023-05-24T10:32:06.311Z,-23568.25
2023-05-24T10:34:10.369Z,-23564.63
2023-05-24T10:36:16.164Z,-23566.97
2023-05-24T10:38:23.268Z,-23560.19
2023-05-24T10:40:26.352Z,-23546.44
2023-05-24T10:42:32.309Z,-23551.47
2023-05-24T10:44:35.029Z,-23539.78
2023-05-24T10:46:38.415Z,-23539.78
2023-05-24T10:48:43.004Z,-23542.00
2023-05-24T10:50:45.826Z,-23540.09
2023-05-24T10:52:49.789Z,-23532.19
2023-05-24T10:55:13.367Z,-23536.78
2023-05-24T10:57:24.423Z,-23540.88
2023-05-24T10:59:35.184Z,-23534.56
2023-05-24T11:01:37.955Z,-23535.03
2023-05-24T11:03:43.429Z,-23542.47
2023-05-24T11:05:54.609Z,-23538.84
2023-05-24T11:08:00.229Z,-23536.59
2023-05-24T11:10:08.184Z,-23546.44
2023-05-24T11:12:11.170Z,-23539.78
2023-05-24T11:14:14.638Z,-23543.88
2023-05-24T11:16:37.076Z,-23534.88
2023-05-24T11:18:40.214Z,-23547.06
2023-05-24T11:20:45.514Z,-23555.91
2023-05-24T11:22:48.741Z,-23560.03
2023-05-24T11:24:53.309Z,-23560.97
2023-05-24T11:26:57.163Z,-23558.91
2023-05-24T11:29:04.869Z,-23550.84
2023-05-24T11:31:10.320Z,-23560.66
2023-05-24T11:33:18.420Z,-23562.41
2023-05-24T11:35:23.096Z,-23564.47
2023-05-24T11:37:38.411Z,-23581.53
2023-05-24T11:39:52.321Z,-23590.53
2023-05-24T11:41:56.823Z,-23605.84
2023-05-24T11:44:00.047Z,-23579.63
2023-05-24T11:46:02.805Z,-23576.47
2023-05-24T11:48:07.137Z,-23585.66
2023-05-24T11:50:10.781Z,-23591.66
2023-05-24T11:52:14.692Z,-23578.38
2023-05-24T11:54:19.934Z,-23591.50
2023-05-24T11:56:23.237Z,-23590.69
2023-05-24T11:58:30.418Z,-23583.75
2023-05-24T12:00:33.125Z,-23608.69
2023-05-24T12:02:37.806Z,-23600.97
2023-05-24T12:04:41.136Z,-23608.69
2023-05-24T12:06:46.138Z,-23620.88
2023-05-24T12:08:49.666Z,-23632.38
2023-05-24T12:10:54.660Z,-23630.19
2023-05-24T12:12:57.998Z,-23618.34
2023-05-24T12:15:00.893Z,-23635.06
2023-05-24T12:17:03.747Z,-23655.09
2023-05-24T12:19:11.844Z,-23632.69
2023-05-24T12:21:22.916Z,-23613.44
2023-05-24T12:23:27.827Z,-23606.19
2023-05-24T12:25:30.522Z,-23620.41
2023-05-24T12:27:35.509Z,-23628.28
2023-05-24T12:29:40.755Z,-23633.97
2023-05-24T12:31:45.371Z,-23644.69
2023-05-24T12:33:48.526Z,-23624.81
2023-05-24T12:35:51.324Z,-23645.66
2023-05-24T12:38:00.907Z,-23637.91
2023-05-24T12:40:05.410Z,-23635.53
2023-05-24T12:42:08.818Z,-23639.00
2023-05-24T12:44:13.217Z,-23641.06
2023-05-24T12:46:15.937Z,-23643.13
2023-05-24T12:48:19.021Z,-23633.97
2023-05-24T12:50:23.086Z,-23640.75
2023-05-24T12:52:26.873Z,-23643.91
2023-05-24T12:54:30.557Z,-23621.34
2023-05-24T12:56:33.326Z,-23629.06
2023-05-24T12:58:36.088Z,-23655.75
2023-05-24T13:00:40.258Z,-23632.06
2023-05-24T13:02:43.036Z,-23654.78
2023-05-24T13:04:45.786Z,-23629.38
2023-05-24T13:06:49.064Z,-23641.22
2023-05-24T13:08:52.377Z,-23651.47
2023-05-24T13:10:55.160Z,-23651.78
2023-05-24T13:12:57.847Z,-23665.50
2023-05-24T13:15:00.769Z,-23654.47
2023-05-24T13:17:04.892Z,-23665.19
2023-05-24T13:19:08.089Z,-23630.50
2023-05-24T13:21:12.325Z,-23650.22
2023-05-24T13:23:15.322Z,-23673.09
2023-05-24T13:25:17.965Z,-23671.19
2023-05-24T13:27:20.713Z,-23684.41
2023-05-24T13:29:36.854Z,-23690.09
2023-05-24T13:31:45.573Z,-23693.56
2023-05-24T13:33:49.680Z,-23666.94
2023-05-24T13:35:52.551Z,-23644.38
2023-05-24T13:37:57.870Z,-23652.91
2023-05-24T13:40:00.557Z,-23644.22
2023-05-24T13:42:03.389Z,-23651.00
2023-05-24T13:44:07.219Z,-23642.31
2023-05-24T13:46:12.330Z,-23666.16
2023-05-24T13:48:15.217Z,-23665.81
2023-05-24T13:50:20.461Z,-23649.75
2023-05-24T13:52:23.620Z,-23638.06
2023-05-24T13:54:26.470Z,-23664.09
2023-05-24T13:56:33.224Z,-23673.09
2023-05-24T13:58:36.693Z,-23669.28
2023-05-24T14:00:39.358Z,-23650.69
2023-05-24T14:02:43.243Z,-23648.47
2023-05-24T14:04:45.990Z,-23653.84
2023-05-24T14:06:50.023Z,-23651.63
2023-05-24T14:08:53.133Z,-23663.63
2023-05-24T14:10:56.190Z,-23659.84
2023-05-24T14:13:20.635Z,-23659.53
2023-05-24T14:15:21.808Z,-23633.97
2023-05-24T14:17:24.698Z,-23629.25
2023-05-24T14:19:27.497Z,-23635.53
2023-05-24T14:21:31.081Z,-23658.56
2023-05-24T14:23:35.216Z,-23665.19
2023-05-24T14:25:38.001Z,-23664.25
2023-05-24T14:27:41.224Z,-23685.06
2023-05-24T14:29:43.906Z,-23671.50
2023-05-24T14:31:46.704Z,-23680.00
2023-05-24T14:33:49.446Z,-23669.13
2023-05-24T14:35:52.512Z,-23664.88
2023-05-24T14:37:55.213Z,-23658.56
2023-05-24T14:39:59.288Z,-23648.78
2023-05-24T14:42:02.013Z,-23642.00
2023-05-24T14:44:04.758Z,-23646.59
2023-05-24T14:46:07.455Z,-23647.38
2023-05-24T14:48:11.404Z,-23648.78
2023-05-24T14:50:14.521Z,-23633.34
2023-05-24T14:52:17.245Z,-23633.66
2023-05-24T14:54:19.978Z,-23633.50
2023-05-24T14:56:24.030Z,-23637.13
2023-05-24T14:58:27.262Z,-23636.81
2023-05-24T15:00:30.113Z,-23635.69
2023-05-24T15:02:34.219Z,-23642.31
2023-05-24T15:04:37.052Z,-23649.75
2023-05-24T15:06:40.096Z,-23663.00
2023-05-24T15:08:42.966Z,-23655.75
2023-05-24T15:10:46.537Z,-23639.97
2023-05-24T15:12:52.018Z,-23655.41
2023-05-24T15:14:54.754Z,-23645.16
2023-05-24T15:16:57.457Z,-23654.31
2023-05-24T15:19:00.112Z,-23650.84
2023-05-24T15:21:02.734Z,-23651.94
2023-05-24T15:23:06.348Z,-23658.88
2023-05-24T15:25:10.044Z,-23673.09
2023-05-24T15:27:12.750Z,-23656.38
2023-05-24T15:29:17.572Z,-23645.00
2023-05-24T15:31:20.424Z,-23652.91
2023-05-24T15:33:23.359Z,-23639.81
2023-05-24T15:35:26.722Z,-23657.94
2023-05-24T15:37:29.591Z,-23652.25
2023-05-24T15:39:33.174Z,-23661.41
2023-05-24T15:41:37.523Z,-23673.22
2023-05-24T15:43:40.321Z,-23668.66
2023-05-24T15:45:46.029Z,-23653.84
2023-05-24T15:47:48.827Z,-23665.81
2023-05-24T15:49:51.505Z,-23661.25
2023-05-24T15:53:59.799Z,-23655.41
2023-05-24T15:56:02.446Z,-23649.25
2023-05-24T15:58:05.805Z,-23646.28
2023-05-24T16:00:09.591Z,-23643.44
2023-05-24T16:02:13.711Z,-23641.38
2023-05-24T16:04:16.528Z,-23636.19
2023-05-24T16:06:19.258Z,-23638.38
2023-05-24T16:08:27.458Z,-23636.03
2023-05-24T16:10:30.791Z,-23630.97
2023-05-24T16:12:33.478Z,-23632.56
2023-05-24T16:14:36.507Z,-23642.81
2023-05-24T16:16:39.326Z,-23636.19
2023-05-24T16:18:46.463Z,-23636.19
2023-05-24T16:20:49.674Z,-23644.06
2023-05-24T16:22:52.920Z,-23638.22
2023-05-24T16:24:55.675Z,-23639.66
2023-05-24T16:26:58.486Z,-23634.13
2023-05-24T16:29:01.689Z,-23641.38
2023-05-24T16:31:04.357Z,-23643.13
2023-05-24T16:33:07.100Z,-23645.97
2023-05-24T16:35:11.312Z,-23642.47
2023-05-24T16:37:14.207Z,-23642.81
2023-05-24T16:39:16.922Z,-23642.81
2023-05-24T16:41:19.551Z,-23645.31
2023-05-24T16:43:22.706Z,-23660.31
2023-05-24T16:45:25.458Z,-23660.16
2023-05-24T16:47:29.913Z,-23653.38
2023-05-24T16:49:32.752Z,-23650.06
2023-05-24T16:51:36.797Z,-23647.22
2023-05-24T16:53:39.520Z,-23637.44
2023-05-24T16:55:42.295Z,-23634.13
2023-05-24T16:57:44.975Z,-23625.91
2023-05-24T16:59:50.652Z,-23626.06
2023-05-24T17:01:53.653Z,-23627.81
2023-05-24T17:03:56.555Z,-23623.06
2023-05-24T17:06:03.301Z,-23625.91
2023-05-24T17:08:08.402Z,-23621.97
2023-05-24T17:10:11.415Z,-23614.72
2023-05-24T17:12:14.148Z,-23618.50
2023-05-24T17:14:16.847Z,-23620.56
2023-05-24T17:16:20.604Z,-23610.75
2023-05-24T17:18:28.839Z,-23610.13
2023-05-24T17:20:31.788Z,-23610.91
2023-05-24T17:22:34.543Z,-23607.13
2023-05-24T17:24:38.677Z,-23605.38
2023-05-24T17:26:42.494Z,-23610.59
2023-05-24T17:28:46.155Z,-23604.59
2023-05-24T17:30:48.787Z,-23606.03
2023-05-24T17:32:51.469Z,-23609.50
2023-05-24T17:34:54.205Z,-23611.88
2023-05-24T17:36:56.906Z,-23607.13
2023-05-24T17:38:59.591Z,-23610.13
2023-05-24T17:41:03.719Z,-23608.69
2023-05-24T17:43:06.383Z,-23608.06
2023-05-24T17:45:10.348Z,-23606.03
2023-05-24T17:47:12.980Z,-23603.97
2023-05-24T17:49:15.711Z,-23599.22
2023-05-24T17:51:19.462Z,-23602.41
2023-05-24T17:53:31.310Z,-23600.19
2023-05-24T17:55:35.110Z,-23598.28
2023-05-24T17:57:39.135Z,-23598.44
2023-05-24T17:59:41.832Z,-23594.81
2023-05-24T18:01:46.651Z,-23592.28
2023-05-24T18:03:49.656Z,-23592.91
2023-05-24T18:05:52.350Z,-23592.28
2023-05-24T18:07:55.115Z,-23586.75
2023-05-24T18:10:00.020Z,-23587.53
2023-05-24T18:12:03.119Z,-23585.81
2023-05-24T18:14:07.500Z,-23587.06
2023-05-24T18:16:11.785Z,-23585.81
2023-05-24T18:18:14.521Z,-23584.38
2023-05-24T18:20:17.241Z,-23583.44
2023-05-24T18:22:20.000Z,-23579.00
2023-05-24T18:24:22.734Z,-23580.59
2023-05-24T18:26:25.708Z,-23584.06
2023-05-24T18:28:28.423Z,-23577.91
2023-05-24T18:30:32.601Z,-23576.94
2023-05-24T18:32:36.750Z,-23573.94
2023-05-24T18:34:39.549Z,-23575.84
2023-05-24T18:36:42.211Z,-23577.09
2023-05-24T18:38:47.147Z,-23573.78
2023-05-24T18:40:49.802Z,-23569.34
2023-05-24T18:42:52.517Z,-23568.72
2023-05-24T18:44:55.190Z,-23569.19
2023-05-24T18:46:59.433Z,-23564.63
2023-05-24T18:49:03.113Z,-23567.31
2023-05-24T18:51:06.475Z,-23564.94
2023-05-24T18:53:09.780Z,-23560.81
2023-05-24T18:55:12.444Z,-23559.06
2023-05-24T18:57:15.125Z,-23555.91
2023-05-24T18:59:17.817Z,-23557.81
2023-05-24T19:01:20.596Z,-23554.34
2023-05-24T19:03:25.305Z,-23553.06
2023-05-24T19:05:28.003Z,-23549.59
2023-05-24T19:07:30.662Z,-23551.00
2023-05-24T19:09:33.833Z,-23548.31
2023-05-24T19:11:36.871Z,-23547.22
2023-05-24T19:13:39.981Z,-23546.09
2023-05-24T19:15:42.879Z,-23547.06
2023-05-24T19:17:45.878Z,-23543.09
2023-05-24T19:19:49.980Z,-23543.56
2023-05-24T19:21:52.894Z,-23539.00
2023-05-24T19:23:55.566Z,-23541.03
2023-05-24T19:25:58.234Z,-23538.66
2023-05-24T19:28:01.194Z,-23539.00
2023-05-24T19:30:05.214Z,-23540.88
2023-05-24T19:32:08.874Z,-23537.25
2023-05-24T19:34:11.664Z,-23538.03
2023-05-24T19:36:16.296Z,-23536.13
2023-05-24T19:38:19.709Z,-23534.38
2023-05-24T19:40:22.420Z,-23529.81
2023-05-24T19:42:26.213Z,-23528.06
2023-05-24T19:44:29.850Z,-23527.91
2023-05-24T19:46:32.785Z,-23525.38
2023-05-24T19:48:35.532Z,-23521.09
2023-05-24T19:50:39.355Z,-23522.38
2023-05-24T19:52:43.406Z,-23521.88
2023-05-24T19:54:46.069Z,-23520.16
2023-05-24T19:56:50.672Z,-23518.56
2023-05-24T19:58:53.338Z,-23516.03
2023-05-24T20:00:56.005Z,-23516.19
2023-05-24T20:02:58.657Z,-23516.03
2023-05-24T20:05:01.343Z,-23513.81
2023-05-24T20:07:04.029Z,-23514.59
2023-05-24T20:09:08.572Z,-23513.34
2023-05-24T20:11:12.168Z,-23513.34
2023-05-24T20:13:14.908Z,-23511.91
2023-05-24T20:15:18.271Z,-23509.69
2023-05-24T20:17:21.000Z,-23509.38
2023-05-24T20:19:23.728Z,-23508.91
2023-05-24T20:21:26.373Z,-23509.06
2023-05-24T20:23:29.111Z,-23508.75
2023-05-24T20:25:33.133Z,-23509.69
2023-05-24T20:27:35.811Z,-23513.19
2023-05-24T20:29:38.555Z,-23512.22
2023-05-24T20:31:41.342Z,-23514.44
2023-05-24T20:33:44.137Z,-23517.78
2023-05-24T20:35:47.067Z,-23517.13
2023-05-24T20:37:49.806Z,-23519.34
2023-05-24T20:39:52.520Z,-23522.03
2023-05-24T20:41:58.327Z,-23522.69
2023-05-24T20:44:01.528Z,-23520.47
2023-05-24T20:46:04.352Z,-23518.25
2023-05-24T20:48:07.669Z,-23522.03
2023-05-24T20:50:10.802Z,-23522.53
2023-05-24T20:52:16.213Z,-23520.63
2023-05-24T20:54:18.952Z,-23519.19
2023-05-24T20:56:23.556Z,-23520.47
2023-05-24T20:58:27.630Z,-23521.72
2023-05-24T21:00:30.459Z,-23518.25
2023-05-24T21:02:33.319Z,-23517.13
2023-05-24T21:04:36.211Z,-23516.03
2023-05-24T21:06:39.808Z,-23517.28
2023-05-24T21:08:43.548Z,-23516.34
2023-05-24T21:10:46.452Z,-23514.44
2023-05-24T21:12:49.360Z,-23513.03
2023-05-24T21:14:54.710Z,-23510.66
2023-05-24T21:16:57.466Z,-23508.75
2023-05-24T21:19:01.161Z,-23511.59
2023-05-24T21:21:06.287Z,-23512.84
2023-05-24T21:23:10.163Z,-23509.06
2023-05-24T21:25:12.941Z,-23507.78
2023-05-24T21:27:15.731Z,-23508.44
2023-05-24T21:29:18.399Z,-23510.00
2023-05-24T21:31:22.872Z,-23511.75
2023-05-24T21:33:25.880Z,-23510.31
2023-05-24T21:35:28.813Z,-23511.28
2023-05-24T21:37:31.533Z,-23512.06
2023-05-24T21:39:34.310Z,-23514.13
2023-05-24T21:41:38.927Z,-23516.66
2023-05-24T21:43:42.706Z,-23514.75
2023-05-24T21:45:45.536Z,-23515.06
2023-05-24T21:47:50.278Z,-23516.81
2023-05-24T21:49:54.802Z,-23519.34
2023-05-24T21:51:57.443Z,-23521.72
2023-05-24T21:54:00.357Z,-23521.09
2023-05-24T21:56:03.606Z,-23521.09
2023-05-24T21:58:06.318Z,-23522.69
2023-05-24T22:00:10.252Z,-23521.41
2023-05-24T22:02:14.300Z,-23519.50
2023-05-24T22:04:18.573Z,-23520.16
2023-05-24T22:06:21.352Z,-23518.09
2023-05-24T22:08:24.120Z,-23517.63
2023-05-24T22:10:27.191Z,-23516.34
2023-05-24T22:12:29.905Z,-23518.25
2023-05-24T22:14:32.627Z,-23518.56
2023-05-24T22:16:35.998Z,-23514.91
2023-05-24T22:18:38.788Z,-23513.19
2023-05-24T22:20:44.860Z,-23511.59
2023-05-24T22:22:53.573Z,-23512.22
2023-05-24T22:24:56.792Z,-23511.59
2023-05-24T22:27:01.117Z,-23511.59
2023-05-24T22:29:04.608Z,-23511.91
2023-05-24T22:31:07.352Z,-23508.59
2023-05-24T22:33:10.145Z,-23511.59
2023-05-24T22:35:12.980Z,-23510.50
2023-05-24T22:37:17.430Z,-23507.78
2023-05-24T22:39:20.160Z,-23503.84
2023-05-24T22:41:23.500Z,-23503.19
2023-05-24T22:43:26.239Z,-23500.19
2023-05-24T22:45:28.945Z,-23501.63
2023-05-24T22:47:33.507Z,-23501.13
2023-05-24T22:49:36.455Z,-23500.19
2023-05-24T22:51:39.181Z,-23500.03
2023-05-24T22:53:43.218Z,-23500.19
2023-05-24T22:55:46.113Z,-23499.25
2023-05-24T22:57:48.857Z,-23500.81
2023-05-24T22:59:51.569Z,-23496.38
2023-05-24T23:01:54.404Z,-23495.13
2023-05-24T23:04:07.767Z,-23496.38
2023-05-24T23:06:21.137Z,-23493.53
2023-05-24T23:08:25.618Z,-23491.63
2023-05-24T23:10:29.691Z,-23491.47
2023-05-24T23:12:33.152Z,-23489.91
2023-05-24T23:14:38.344Z,-23493.53
2023-05-24T23:16:45.440Z,-23493.84
2023-05-24T23:18:48.761Z,-23493.69
2023-05-24T23:20:54.206Z,-23493.84
2023-05-24T23:22:58.899Z,-23493.53
2023-05-24T23:25:02.535Z,-23488.63
2023-05-24T23:27:07.250Z,-23490.53
2023-05-24T23:29:10.143Z,-23489.25
2023-05-24T23:31:13.177Z,-23492.91
2023-05-24T23:33:15.899Z,-23491.63
2023-05-24T23:35:18.624Z,-23492.25
2023-05-24T23:37:21.365Z,-23492.44